sensor_id;sensor_type;location;lat;lon;timestamp;pressure;altitude;pressure_sealevel;temperature
12875;BMP180;6505;51.114;13.128;2023-05-18T00:02:24;100443.00;;;17.00
12875;BMP180;6505;51.114;13.128;2023-05-18T00:04:53;100442.00;;;17.00
12875;BMP180;6505;51.114;13.128;2023-05-18T00:07:21;100446.00;;;17.00
12875;BMP180;6505;51.114;13.128;2023-05-18T00:09:49;100445.00;;;16.90
12875;BMP180;6505;51.114;13.128;2023-05-18T00:12:17;100447.00;;;16.90
12875;BMP180;6505;51.114;13.128;2023-05-18T00:14:45;100448.00;;;16.90
12875;BMP180;6505;51.114;13.128;2023-05-18T00:17:14;100450.00;;;16.90
12875;BMP180;6505;51.114;13.128;2023-05-18T00:19:42;100455.00;;;16.90
12875;BMP180;6505;51.114;13.128;2023-05-18T00:22:12;100452.00;;;16.90
12875;BMP180;6505;51.114;13.128;2023-05-18T00:24:44;100452.00;;;16.90
12875;BMP180;6505;51.114;13.128;2023-05-18T00:27:13;100446.00;;;16.80
12875;BMP180;6505;51.114;13.128;2023-05-18T00:29:41;100456.00;;;16.80
12875;BMP180;6505;51.114;13.128;2023-05-18T00:32:11;100455.00;;;16.80
12875;BMP180;6505;51.114;13.128;2023-05-18T00:34:40;100460.00;;;16.80
12875;BMP180;6505;51.114;13.128;2023-05-18T00:37:08;100460.00;;;16.80
12875;BMP180;6505;51.114;13.128;2023-05-18T00:39:36;100457.00;;;16.70
12875;BMP180;6505;51.114;13.128;2023-05-18T00:42:04;100456.00;;;16.70
12875;BMP180;6505;51.114;13.128;2023-05-18T00:44:32;100464.00;;;16.70
12875;BMP180;6505;51.114;13.128;2023-05-18T00:47:00;100468.00;;;16.70
12875;BMP180;6505;51.114;13.128;2023-05-18T00:49:29;100466.00;;;16.70
12875;BMP180;6505;51.114;13.128;2023-05-18T00:51:58;100469.00;;;16.70
12875;BMP180;6505;51.114;13.128;2023-05-18T00:54:26;100475.00;;;16.70
12875;BMP180;6505;51.114;13.128;2023-05-18T00:56:54;100472.00;;;16.70
12875;BMP180;6505;51.114;13.128;2023-05-18T00:59:22;100476.00;;;16.60
12875;BMP180;6505;51.114;13.128;2023-05-18T01:01:51;100472.00;;;16.60
12875;BMP180;6505;51.114;13.128;2023-05-18T01:04:19;100475.00;;;16.60
12875;BMP180;6505;51.114;13.128;2023-05-18T01:06:47;100481.00;;;16.60
12875;BMP180;6505;51.114;13.128;2023-05-18T01:09:17;100478.00;;;16.60
12875;BMP180;6505;51.114;13.128;2023-05-18T01:11:55;100481.00;;;16.50
12875;BMP180;6505;51.114;13.128;2023-05-18T01:14:33;100481.00;;;16.50
12875;BMP180;6505;51.114;13.128;2023-05-18T01:17:11;100474.00;;;16.50
12875;BMP180;6505;51.114;13.128;2023-05-18T01:20:02;100482.00;;;16.40
12875;BMP180;6505;51.114;13.128;2023-05-18T01:23:05;100481.00;;;16.40
12875;BMP180;6505;51.114;13.128;2023-05-18T01:25:48;100483.00;;;16.40
12875;BMP180;6505;51.114;13.128;2023-05-18T01:28:21;100485.00;;;16.30
12875;BMP180;6505;51.114;13.128;2023-05-18T01:30:53;100487.00;;;16.40
12875;BMP180;6505;51.114;13.128;2023-05-18T01:33:21;100489.00;;;16.40
12875;BMP180;6505;51.114;13.128;2023-05-18T01:35:51;100489.00;;;16.30
12875;BMP180;6505;51.114;13.128;2023-05-18T01:38:22;100493.00;;;16.30
12875;BMP180;6505;51.114;13.128;2023-05-18T01:40:59;100492.00;;;16.30
12875;BMP180;6505;51.114;13.128;2023-05-18T01:43:34;100494.00;;;16.20
12875;BMP180;6505;51.114;13.128;2023-05-18T01:46:13;100499.00;;;16.20
12875;BMP180;6505;51.114;13.128;2023-05-18T01:48:51;100498.00;;;16.20
12875;BMP180;6505;51.114;13.128;2023-05-18T01:51:25;100492.00;;;16.20
12875;BMP180;6505;51.114;13.128;2023-05-18T01:54:03;100503.00;;;16.10
12875;BMP180;6505;51.114;13.128;2023-05-18T01:56:33;100497.00;;;16.10
12875;BMP180;6505;51.114;13.128;2023-05-18T01:59:03;100500.00;;;16.10
12875;BMP180;6505;51.114;13.128;2023-05-18T02:01:31;100500.00;;;16.10
12875;BMP180;6505;51.114;13.128;2023-05-18T02:04:00;100496.00;;;16.10
12875;BMP180;6505;51.114;13.128;2023-05-18T02:06:29;100492.00;;;16.10
12875;BMP180;6505;51.114;13.128;2023-05-18T02:08:57;100487.00;;;16.10
12875;BMP180;6505;51.114;13.128;2023-05-18T02:11:25;100488.00;;;16.00
12875;BMP180;6505;51.114;13.128;2023-05-18T02:13:53;100493.00;;;16.00
12875;BMP180;6505;51.114;13.128;2023-05-18T02:16:22;100496.00;;;16.00
12875;BMP180;6505;51.114;13.128;2023-05-18T02:18:50;100494.00;;;16.00
12875;BMP180;6505;51.114;13.128;2023-05-18T02:21:19;100499.00;;;15.90
12875;BMP180;6505;51.114;13.128;2023-05-18T02:23:47;100498.00;;;15.90
12875;BMP180;6505;51.114;13.128;2023-05-18T02:26:15;100494.00;;;15.90
12875;BMP180;6505;51.114;13.128;2023-05-18T02:28:48;100496.00;;;15.90
12875;BMP180;6505;51.114;13.128;2023-05-18T02:31:16;100494.00;;;15.80
12875;BMP180;6505;51.114;13.128;2023-05-18T02:33:46;100498.00;;;15.80
12875;BMP180;6505;51.114;13.128;2023-05-18T02:36:14;100503.00;;;15.80
12875;BMP180;6505;51.114;13.128;2023-05-18T02:38:44;100509.00;;;15.80
12875;BMP180;6505;51.114;13.128;2023-05-18T02:41:12;100501.00;;;15.70
12875;BMP180;6505;51.114;13.128;2023-05-18T02:43:40;100498.00;;;15.70
12875;BMP180;6505;51.114;13.128;2023-05-18T02:46:08;100504.00;;;15.70
12875;BMP180;6505;51.114;13.128;2023-05-18T02:48:36;100513.00;;;15.70
12875;BMP180;6505;51.114;13.128;2023-05-18T02:51:05;100510.00;;;15.70
12875;BMP180;6505;51.114;13.128;2023-05-18T02:53:33;100514.00;;;15.60
12875;BMP180;6505;51.114;13.128;2023-05-18T02:56:07;100509.00;;;15.60
12875;BMP180;6505;51.114;13.128;2023-05-18T02:58:50;100515.00;;;15.60
12875;BMP180;6505;51.114;13.128;2023-05-18T03:01:30;100524.00;;;15.60
12875;BMP180;6505;51.114;13.128;2023-05-18T03:04:03;100518.00;;;15.50
12875;BMP180;6505;51.114;13.128;2023-05-18T03:06:33;100522.00;;;15.50
12875;BMP180;6505;51.114;13.128;2023-05-18T03:09:01;100517.00;;;15.50
12875;BMP180;6505;51.114;13.128;2023-05-18T03:11:38;100524.00;;;15.40
12875;BMP180;6505;51.114;13.128;2023-05-18T03:14:07;100527.00;;;15.40
12875;BMP180;6505;51.114;13.128;2023-05-18T03:16:35;100529.00;;;15.40
12875;BMP180;6505;51.114;13.128;2023-05-18T03:19:09;100520.00;;;15.40
12875;BMP180;6505;51.114;13.128;2023-05-18T03:21:41;100520.00;;;15.30
12875;BMP180;6505;51.114;13.128;2023-05-18T03:24:09;100516.00;;;15.30
12875;BMP180;6505;51.114;13.128;2023-05-18T03:26:41;100520.00;;;15.30
12875;BMP180;6505;51.114;13.128;2023-05-18T03:29:10;100522.00;;;15.30
12875;BMP180;6505;51.114;13.128;2023-05-18T03:31:40;100523.00;;;15.30
12875;BMP180;6505;51.114;13.128;2023-05-18T03:34:10;100526.00;;;15.30
12875;BMP180;6505;51.114;13.128;2023-05-18T03:36:38;100529.00;;;15.20
12875;BMP180;6505;51.114;13.128;2023-05-18T03:39:08;100534.00;;;15.20
12875;BMP180;6505;51.114;13.128;2023-05-18T03:41:36;100530.00;;;15.20
12875;BMP180;6505;51.114;13.128;2023-05-18T03:44:04;100530.00;;;15.20
12875;BMP180;6505;51.114;13.128;2023-05-18T03:46:32;100527.00;;;15.20
12875;BMP180;6505;51.114;13.128;2023-05-18T03:49:00;100550.00;;;15.20
12875;BMP180;6505;51.114;13.128;2023-05-18T03:51:36;100539.00;;;15.10
12875;BMP180;6505;51.114;13.128;2023-05-18T03:54:04;100547.00;;;15.10
12875;BMP180;6505;51.114;13.128;2023-05-18T03:56:33;100543.00;;;15.10
12875;BMP180;6505;51.114;13.128;2023-05-18T03:59:02;100547.00;;;15.00
12875;BMP180;6505;51.114;13.128;2023-05-18T04:01:31;100542.00;;;15.00
12875;BMP180;6505;51.114;13.128;2023-05-18T04:04:00;100549.00;;;15.00
12875;BMP180;6505;51.114;13.128;2023-05-18T04:06:28;100548.00;;;15.00
12875;BMP180;6505;51.114;13.128;2023-05-18T04:08:56;100550.00;;;15.00
12875;BMP180;6505;51.114;13.128;2023-05-18T04:11:28;100539.00;;;15.00
12875;BMP180;6505;51.114;13.128;2023-05-18T04:13:57;100555.00;;;15.00
12875;BMP180;6505;51.114;13.128;2023-05-18T04:16:26;100551.00;;;15.00
12875;BMP180;6505;51.114;13.128;2023-05-18T04:18:54;100554.00;;;14.90
12875;BMP180;6505;51.114;13.128;2023-05-18T04:21:23;100555.00;;;15.00
12875;BMP180;6505;51.114;13.128;2023-05-18T04:23:51;100559.00;;;15.00
12875;BMP180;6505;51.114;13.128;2023-05-18T04:26:19;100567.00;;;15.00
12875;BMP180;6505;51.114;13.128;2023-05-18T04:28:48;100566.00;;;15.00
12875;BMP180;6505;51.114;13.128;2023-05-18T04:31:18;100562.00;;;14.90
12875;BMP180;6505;51.114;13.128;2023-05-18T04:33:48;100563.00;;;15.00
12875;BMP180;6505;51.114;13.128;2023-05-18T04:36:17;100564.00;;;15.00
12875;BMP180;6505;51.114;13.128;2023-05-18T04:38:47;100565.00;;;15.00
12875;BMP180;6505;51.114;13.128;2023-05-18T04:41:17;100564.00;;;15.00
12875;BMP180;6505;51.114;13.128;2023-05-18T04:43:47;100564.00;;;15.00
12875;BMP180;6505;51.114;13.128;2023-05-18T04:46:17;100563.00;;;15.00
12875;BMP180;6505;51.114;13.128;2023-05-18T04:48:48;100572.00;;;15.10
12875;BMP180;6505;51.114;13.128;2023-05-18T04:51:16;100570.00;;;15.10
12875;BMP180;6505;51.114;13.128;2023-05-18T04:53:47;100579.00;;;15.10
12875;BMP180;6505;51.114;13.128;2023-05-18T04:56:17;100578.00;;;15.10
12875;BMP180;6505;51.114;13.128;2023-05-18T04:58:46;100581.00;;;15.20
12875;BMP180;6505;51.114;13.128;2023-05-18T05:01:17;100572.00;;;15.20
12875;BMP180;6505;51.114;13.128;2023-05-18T05:03:47;100570.00;;;15.30
12875;BMP180;6505;51.114;13.128;2023-05-18T05:06:15;100575.00;;;15.30
12875;BMP180;6505;51.114;13.128;2023-05-18T05:08:43;100574.00;;;15.40
12875;BMP180;6505;51.114;13.128;2023-05-18T05:11:11;100579.00;;;15.40
12875;BMP180;6505;51.114;13.128;2023-05-18T05:13:39;100581.00;;;15.40
12875;BMP180;6505;51.114;13.128;2023-05-18T05:16:07;100580.00;;;15.50
12875;BMP180;6505;51.114;13.128;2023-05-18T05:18:37;100586.00;;;15.50
12875;BMP180;6505;51.114;13.128;2023-05-18T05:21:05;100595.00;;;15.60
12875;BMP180;6505;51.114;13.128;2023-05-18T05:23:33;100590.00;;;15.70
12875;BMP180;6505;51.114;13.128;2023-05-18T05:26:02;100588.00;;;15.70
12875;BMP180;6505;51.114;13.128;2023-05-18T05:28:31;100596.00;;;15.80
12875;BMP180;6505;51.114;13.128;2023-05-18T05:30:59;100587.00;;;15.80
12875;BMP180;6505;51.114;13.128;2023-05-18T05:33:27;100587.00;;;15.90
12875;BMP180;6505;51.114;13.128;2023-05-18T05:35:57;100577.00;;;16.00
12875;BMP180;6505;51.114;13.128;2023-05-18T05:38:25;100590.00;;;16.00
12875;BMP180;6505;51.114;13.128;2023-05-18T05:40:54;100578.00;;;16.10
12875;BMP180;6505;51.114;13.128;2023-05-18T05:43:22;100576.00;;;16.10
12875;BMP180;6505;51.114;13.128;2023-05-18T05:45:50;100581.00;;;16.20
12875;BMP180;6505;51.114;13.128;2023-05-18T05:48:18;100579.00;;;16.30
12875;BMP180;6505;51.114;13.128;2023-05-18T05:50:46;100586.00;;;16.30
12875;BMP180;6505;51.114;13.128;2023-05-18T05:53:16;100589.00;;;16.40
12875;BMP180;6505;51.114;13.128;2023-05-18T05:55:46;100591.00;;;16.50
12875;BMP180;6505;51.114;13.128;2023-05-18T05:58:17;100592.00;;;16.50
12875;BMP180;6505;51.114;13.128;2023-05-18T06:00:52;100590.00;;;16.60
12875;BMP180;6505;51.114;13.128;2023-05-18T06:03:20;100589.00;;;16.70
12875;BMP180;6505;51.114;13.128;2023-05-18T06:05:49;100587.00;;;16.70
12875;BMP180;6505;51.114;13.128;2023-05-18T06:08:20;100587.00;;;16.80
12875;BMP180;6505;51.114;13.128;2023-05-18T06:10:50;100592.00;;;16.90
12875;BMP180;6505;51.114;13.128;2023-05-18T06:13:18;100591.00;;;17.00
12875;BMP180;6505;51.114;13.128;2023-05-18T06:15:52;100594.00;;;17.00
12875;BMP180;6505;51.114;13.128;2023-05-18T06:18:21;100590.00;;;17.10
12875;BMP180;6505;51.114;13.128;2023-05-18T06:20:52;100595.00;;;17.10
12875;BMP180;6505;51.114;13.128;2023-05-18T06:23:22;100603.00;;;17.20
12875;BMP180;6505;51.114;13.128;2023-05-18T06:26:02;100605.00;;;17.30
12875;BMP180;6505;51.114;13.128;2023-05-18T06:28:48;100604.00;;;17.30
12875;BMP180;6505;51.114;13.128;2023-05-18T06:31:36;100609.00;;;17.40
12875;BMP180;6505;51.114;13.128;2023-05-18T06:34:10;100598.00;;;17.50
12875;BMP180;6505;51.114;13.128;2023-05-18T06:36:38;100605.00;;;17.60
12875;BMP180;6505;51.114;13.128;2023-05-18T06:39:07;100605.00;;;17.60
12875;BMP180;6505;51.114;13.128;2023-05-18T06:41:35;100607.00;;;17.70
12875;BMP180;6505;51.114;13.128;2023-05-18T06:44:04;100615.00;;;17.80
12875;BMP180;6505;51.114;13.128;2023-05-18T06:46:34;100615.00;;;17.80
12875;BMP180;6505;51.114;13.128;2023-05-18T06:49:10;100621.00;;;17.90
12875;BMP180;6505;51.114;13.128;2023-05-18T06:51:38;100617.00;;;18.00
12875;BMP180;6505;51.114;13.128;2023-05-18T06:54:08;100616.00;;;18.00
12875;BMP180;6505;51.114;13.128;2023-05-18T06:56:36;100612.00;;;18.10
12875;BMP180;6505;51.114;13.128;2023-05-18T06:59:04;100624.00;;;18.20
12875;BMP180;6505;51.114;13.128;2023-05-18T07:01:33;100618.00;;;18.20
12875;BMP180;6505;51.114;13.128;2023-05-18T07:04:03;100623.00;;;18.30
12875;BMP180;6505;51.114;13.128;2023-05-18T07:06:31;100611.00;;;18.30
12875;BMP180;6505;51.114;13.128;2023-05-18T07:09:01;100622.00;;;18.40
12875;BMP180;6505;51.114;13.128;2023-05-18T07:11:31;100628.00;;;18.40
12875;BMP180;6505;51.114;13.128;2023-05-18T07:13:59;100617.00;;;18.50
12875;BMP180;6505;51.114;13.128;2023-05-18T07:16:27;100624.00;;;18.60
12875;BMP180;6505;51.114;13.128;2023-05-18T07:18:56;100614.00;;;18.60
12875;BMP180;6505;51.114;13.128;2023-05-18T07:21:24;100618.00;;;18.80
12875;BMP180;6505;51.114;13.128;2023-05-18T07:23:52;100618.00;;;18.90
12875;BMP180;6505;51.114;13.128;2023-05-18T07:26:20;100624.00;;;18.90
12875;BMP180;6505;51.114;13.128;2023-05-18T07:28:50;100625.00;;;19.00
12875;BMP180;6505;51.114;13.128;2023-05-18T07:31:18;100622.00;;;19.10
12875;BMP180;6505;51.114;13.128;2023-05-18T07:33:48;100629.00;;;19.10
12875;BMP180;6505;51.114;13.128;2023-05-18T07:36:16;100622.00;;;19.20
12875;BMP180;6505;51.114;13.128;2023-05-18T07:38:44;100635.00;;;19.30
12875;BMP180;6505;51.114;13.128;2023-05-18T07:41:12;100623.00;;;19.30
12875;BMP180;6505;51.114;13.128;2023-05-18T07:43:40;100622.00;;;19.40
12875;BMP180;6505;51.114;13.128;2023-05-18T07:46:09;100620.00;;;19.40
12875;BMP180;6505;51.114;13.128;2023-05-18T07:48:37;100620.00;;;19.50
12875;BMP180;6505;51.114;13.128;2023-05-18T07:51:07;100606.00;;;19.60
12875;BMP180;6505;51.114;13.128;2023-05-18T07:53:35;100615.00;;;19.70
12875;BMP180;6505;51.114;13.128;2023-05-18T07:56:04;100621.00;;;19.70
12875;BMP180;6505;51.114;13.128;2023-05-18T07:58:33;100616.00;;;19.80
12875;BMP180;6505;51.114;13.128;2023-05-18T08:01:02;100623.00;;;19.90
12875;BMP180;6505;51.114;13.128;2023-05-18T08:03:32;100618.00;;;19.90
12875;BMP180;6505;51.114;13.128;2023-05-18T08:06:00;100617.00;;;20.00
12875;BMP180;6505;51.114;13.128;2023-05-18T08:08:28;100630.00;;;20.00
12875;BMP180;6505;51.114;13.128;2023-05-18T08:10:57;100621.00;;;20.00
12875;BMP180;6505;51.114;13.128;2023-05-18T08:13:26;100633.00;;;20.10
12875;BMP180;6505;51.114;13.128;2023-05-18T08:15:54;100620.00;;;20.10
12875;BMP180;6505;51.114;13.128;2023-05-18T08:18:39;100613.00;;;20.20
12875;BMP180;6505;51.114;13.128;2023-05-18T08:21:08;100618.00;;;20.20
12875;BMP180;6505;51.114;13.128;2023-05-18T08:23:36;100623.00;;;20.30
12875;BMP180;6505;51.114;13.128;2023-05-18T08:26:05;100621.00;;;20.40
12875;BMP180;6505;51.114;13.128;2023-05-18T08:28:34;100623.00;;;20.40
12875;BMP180;6505;51.114;13.128;2023-05-18T08:31:02;100616.00;;;20.50
12875;BMP180;6505;51.114;13.128;2023-05-18T08:33:30;100624.00;;;20.50
12875;BMP180;6505;51.114;13.128;2023-05-18T08:36:00;100625.00;;;20.60
12875;BMP180;6505;51.114;13.128;2023-05-18T08:38:28;100622.00;;;20.70
12875;BMP180;6505;51.114;13.128;2023-05-18T08:41:05;100620.00;;;20.70
12875;BMP180;6505;51.114;13.128;2023-05-18T08:43:40;100626.00;;;20.70
12875;BMP180;6505;51.114;13.128;2023-05-18T08:46:19;100616.00;;;20.80
12875;BMP180;6505;51.114;13.128;2023-05-18T08:48:50;100622.00;;;20.80
12875;BMP180;6505;51.114;13.128;2023-05-18T08:51:21;100628.00;;;20.80
12875;BMP180;6505;51.114;13.128;2023-05-18T08:53:52;100619.00;;;20.80
12875;BMP180;6505;51.114;13.128;2023-05-18T08:56:23;100628.00;;;20.90
12875;BMP180;6505;51.114;13.128;2023-05-18T08:58:55;100614.00;;;20.90
12875;BMP180;6505;51.114;13.128;2023-05-18T09:01:24;100617.00;;;20.90
12875;BMP180;6505;51.114;13.128;2023-05-18T09:03:56;100622.00;;;20.90
12875;BMP180;6505;51.114;13.128;2023-05-18T09:06:25;100625.00;;;20.80
12875;BMP180;6505;51.114;13.128;2023-05-18T09:08:55;100610.00;;;20.80
12875;BMP180;6505;51.114;13.128;2023-05-18T09:11:26;100598.00;;;20.80
12875;BMP180;6505;51.114;13.128;2023-05-18T09:13:54;100605.00;;;20.80
12875;BMP180;6505;51.114;13.128;2023-05-18T09:16:22;100606.00;;;20.80
12875;BMP180;6505;51.114;13.128;2023-05-18T09:18:51;100600.00;;;20.80
12875;BMP180;6505;51.114;13.128;2023-05-18T09:21:19;100591.00;;;20.80
12875;BMP180;6505;51.114;13.128;2023-05-18T09:23:50;100593.00;;;20.80
12875;BMP180;6505;51.114;13.128;2023-05-18T09:26:19;100596.00;;;20.80
12875;BMP180;6505;51.114;13.128;2023-05-18T09:28:52;100580.00;;;20.80
12875;BMP180;6505;51.114;13.128;2023-05-18T09:31:21;100583.00;;;20.90
12875;BMP180;6505;51.114;13.128;2023-05-18T09:33:52;100589.00;;;20.90
12875;BMP180;6505;51.114;13.128;2023-05-18T09:36:25;100587.00;;;20.90
12875;BMP180;6505;51.114;13.128;2023-05-18T09:38:56;100589.00;;;20.90
12875;BMP180;6505;51.114;13.128;2023-05-18T09:41:26;100597.00;;;20.80
12875;BMP180;6505;51.114;13.128;2023-05-18T09:43:54;100603.00;;;20.80
12875;BMP180;6505;51.114;13.128;2023-05-18T09:46:22;100591.00;;;20.80
12875;BMP180;6505;51.114;13.128;2023-05-18T09:48:52;100592.00;;;20.80
12875;BMP180;6505;51.114;13.128;2023-05-18T09:51:20;100596.00;;;20.80
12875;BMP180;6505;51.114;13.128;2023-05-18T09:53:53;100589.00;;;20.80
12875;BMP180;6505;51.114;13.128;2023-05-18T09:56:25;100619.00;;;20.70
12875;BMP180;6505;51.114;13.128;2023-05-18T09:58:53;100616.00;;;20.70
12875;BMP180;6505;51.114;13.128;2023-05-18T10:01:22;100600.00;;;20.60
12875;BMP180;6505;51.114;13.128;2023-05-18T10:03:50;100601.00;;;20.60
12875;BMP180;6505;51.114;13.128;2023-05-18T10:06:19;100601.00;;;20.60
12875;BMP180;6505;51.114;13.128;2023-05-18T10:08:56;100588.00;;;20.60
12875;BMP180;6505;51.114;13.128;2023-05-18T10:11:30;100607.00;;;20.60
12875;BMP180;6505;51.114;13.128;2023-05-18T10:13:59;100599.00;;;20.60
12875;BMP180;6505;51.114;13.128;2023-05-18T10:16:28;100593.00;;;20.60
12875;BMP180;6505;51.114;13.128;2023-05-18T10:18:56;100589.00;;;20.60
12875;BMP180;6505;51.114;13.128;2023-05-18T10:21:29;100589.00;;;20.60
12875;BMP180;6505;51.114;13.128;2023-05-18T10:24:03;100576.00;;;20.60
12875;BMP180;6505;51.114;13.128;2023-05-18T10:26:38;100580.00;;;20.60
12875;BMP180;6505;51.114;13.128;2023-05-18T10:29:08;100590.00;;;20.70
12875;BMP180;6505;51.114;13.128;2023-05-18T10:31:37;100574.00;;;20.70
12875;BMP180;6505;51.114;13.128;2023-05-18T10:34:08;100575.00;;;20.70
12875;BMP180;6505;51.114;13.128;2023-05-18T10:36:37;100573.00;;;20.70
12875;BMP180;6505;51.114;13.128;2023-05-18T10:39:06;100575.00;;;20.70
12875;BMP180;6505;51.114;13.128;2023-05-18T10:41:38;100569.00;;;20.70
12875;BMP180;6505;51.114;13.128;2023-05-18T10:44:07;100570.00;;;20.80
12875;BMP180;6505;51.114;13.128;2023-05-18T10:46:35;100569.00;;;20.70
12875;BMP180;6505;51.114;13.128;2023-05-18T10:49:04;100568.00;;;20.70
12875;BMP180;6505;51.114;13.128;2023-05-18T10:51:41;100571.00;;;20.70
12875;BMP180;6505;51.114;13.128;2023-05-18T10:54:12;100564.00;;;20.70
12875;BMP180;6505;51.114;13.128;2023-05-18T10:56:45;100565.00;;;20.70
12875;BMP180;6505;51.114;13.128;2023-05-18T10:59:17;100557.00;;;20.70
12875;BMP180;6505;51.114;13.128;2023-05-18T11:01:48;100572.00;;;20.70
12875;BMP180;6505;51.114;13.128;2023-05-18T11:04:23;100569.00;;;20.70
12875;BMP180;6505;51.114;13.128;2023-05-18T11:06:56;100574.00;;;20.70
12875;BMP180;6505;51.114;13.128;2023-05-18T11:09:25;100554.00;;;20.70
12875;BMP180;6505;51.114;13.128;2023-05-18T11:11:58;100564.00;;;20.70
12875;BMP180;6505;51.114;13.128;2023-05-18T11:14:28;100560.00;;;20.70
12875;BMP180;6505;51.114;13.128;2023-05-18T11:17:21;100561.00;;;20.60
12875;BMP180;6505;51.114;13.128;2023-05-18T11:20:10;100562.00;;;20.60
12875;BMP180;6505;51.114;13.128;2023-05-18T11:22:44;100560.00;;;20.60
12875;BMP180;6505;51.114;13.128;2023-05-18T11:25:38;100556.00;;;20.60
12875;BMP180;6505;51.114;13.128;2023-05-18T11:28:11;100553.00;;;20.60
12875;BMP180;6505;51.114;13.128;2023-05-18T11:30:48;100547.00;;;20.60
12875;BMP180;6505;51.114;13.128;2023-05-18T11:33:24;100547.00;;;20.60
12875;BMP180;6505;51.114;13.128;2023-05-18T11:35:59;100539.00;;;20.60
12875;BMP180;6505;51.114;13.128;2023-05-18T11:38:48;100546.00;;;20.60
12875;BMP180;6505;51.114;13.128;2023-05-18T11:41:27;100535.00;;;20.60
12875;BMP180;6505;51.114;13.128;2023-05-18T11:44:13;100543.00;;;20.60
12875;BMP180;6505;51.114;13.128;2023-05-18T11:46:59;100526.00;;;20.60
12875;BMP180;6505;51.114;13.128;2023-05-18T11:49:30;100532.00;;;20.60
12875;BMP180;6505;51.114;13.128;2023-05-18T11:52:13;100536.00;;;20.60
12875;BMP180;6505;51.114;13.128;2023-05-18T11:54:45;100536.00;;;20.60
12875;BMP180;6505;51.114;13.128;2023-05-18T11:57:16;100531.00;;;20.60
12875;BMP180;6505;51.114;13.128;2023-05-18T11:59:47;100533.00;;;20.60
12875;BMP180;6505;51.114;13.128;2023-05-18T12:02:20;100531.00;;;20.60
12875;BMP180;6505;51.114;13.128;2023-05-18T12:04:52;100530.00;;;20.60
12875;BMP180;6505;51.114;13.128;2023-05-18T12:07:22;100523.00;;;20.60
12875;BMP180;6505;51.114;13.128;2023-05-18T12:09:51;100533.00;;;20.60
12875;BMP180;6505;51.114;13.128;2023-05-18T12:12:18;100521.00;;;20.60
12875;BMP180;6505;51.114;13.128;2023-05-18T12:14:57;100530.00;;;20.50
12875;BMP180;6505;51.114;13.128;2023-05-18T12:17:37;100529.00;;;20.50
12875;BMP180;6505;51.114;13.128;2023-05-18T12:20:08;100520.00;;;20.50
12875;BMP180;6505;51.114;13.128;2023-05-18T12:22:38;100535.00;;;20.50
12875;BMP180;6505;51.114;13.128;2023-05-18T12:25:07;100527.00;;;20.50
12875;BMP180;6505;51.114;13.128;2023-05-18T12:27:37;100510.00;;;20.50
12875;BMP180;6505;51.114;13.128;2023-05-18T12:30:09;100514.00;;;20.50
12875;BMP180;6505;51.114;13.128;2023-05-18T12:32:44;100522.00;;;20.50
12875;BMP180;6505;51.114;13.128;2023-05-18T12:35:13;100508.00;;;20.50
12875;BMP180;6505;51.114;13.128;2023-05-18T12:37:42;100516.00;;;20.50
12875;BMP180;6505;51.114;13.128;2023-05-18T12:40:14;100518.00;;;20.50
12875;BMP180;6505;51.114;13.128;2023-05-18T12:42:51;100527.00;;;20.50
12875;BMP180;6505;51.114;13.128;2023-05-18T12:45:24;100528.00;;;20.50
12875;BMP180;6505;51.114;13.128;2023-05-18T12:47:54;100518.00;;;20.50
12875;BMP180;6505;51.114;13.128;2023-05-18T12:50:24;100520.00;;;20.50
12875;BMP180;6505;51.114;13.128;2023-05-18T12:52:54;100514.00;;;20.50
12875;BMP180;6505;51.114;13.128;2023-05-18T12:55:23;100509.00;;;20.50
12875;BMP180;6505;51.114;13.128;2023-05-18T12:58:00;100514.00;;;20.50
12875;BMP180;6505;51.114;13.128;2023-05-18T13:00:33;100508.00;;;20.50
12875;BMP180;6505;51.114;13.128;2023-05-18T13:03:05;100512.00;;;20.50
12875;BMP180;6505;51.114;13.128;2023-05-18T13:05:36;100516.00;;;20.50
12875;BMP180;6505;51.114;13.128;2023-05-18T13:08:04;100499.00;;;20.50
12875;BMP180;6505;51.114;13.128;2023-05-18T13:10:32;100506.00;;;20.50
12875;BMP180;6505;51.114;13.128;2023-05-18T13:13:02;100516.00;;;20.50
12875;BMP180;6505;51.114;13.128;2023-05-18T13:15:36;100505.00;;;20.50
12875;BMP180;6505;51.114;13.128;2023-05-18T13:18:07;100515.00;;;20.50
12875;BMP180;6505;51.114;13.128;2023-05-18T13:20:40;100509.00;;;20.50
12875;BMP180;6505;51.114;13.128;2023-05-18T13:23:12;100504.00;;;20.50
12875;BMP180;6505;51.114;13.128;2023-05-18T13:25:41;100512.00;;;20.50
12875;BMP180;6505;51.114;13.128;2023-05-18T13:28:11;100513.00;;;20.50
12875;BMP180;6505;51.114;13.128;2023-05-18T13:30:42;100513.00;;;20.50
12875;BMP180;6505;51.114;13.128;2023-05-18T13:33:10;100510.00;;;20.50
12875;BMP180;6505;51.114;13.128;2023-05-18T13:35:40;100498.00;;;20.50
12875;BMP180;6505;51.114;13.128;2023-05-18T13:38:09;100501.00;;;20.60
12875;BMP180;6505;51.114;13.128;2023-05-18T13:40:38;100502.00;;;20.60
12875;BMP180;6505;51.114;13.128;2023-05-18T13:43:06;100513.00;;;20.60
12875;BMP180;6505;51.114;13.128;2023-05-18T13:45:38;100499.00;;;20.60
12875;BMP180;6505;51.114;13.128;2023-05-18T13:48:08;100493.00;;;20.60
12875;BMP180;6505;51.114;13.128;2023-05-18T13:50:37;100503.00;;;20.60
12875;BMP180;6505;51.114;13.128;2023-05-18T13:53:06;100508.00;;;20.60
12875;BMP180;6505;51.114;13.128;2023-05-18T13:55:34;100498.00;;;20.60
12875;BMP180;6505;51.114;13.128;2023-05-18T13:58:02;100497.00;;;20.60
12875;BMP180;6505;51.114;13.128;2023-05-18T14:00:31;100492.00;;;20.60
12875;BMP180;6505;51.114;13.128;2023-05-18T14:03:00;100504.00;;;20.60
12875;BMP180;6505;51.114;13.128;2023-05-18T14:05:29;100486.00;;;20.60
12875;BMP180;6505;51.114;13.128;2023-05-18T14:07:57;100491.00;;;20.60
12875;BMP180;6505;51.114;13.128;2023-05-18T14:10:25;100483.00;;;20.60
12875;BMP180;6505;51.114;13.128;2023-05-18T14:12:53;100490.00;;;20.60
12875;BMP180;6505;51.114;13.128;2023-05-18T14:15:21;100499.00;;;20.60
12875;BMP180;6505;51.114;13.128;2023-05-18T14:17:49;100501.00;;;20.60